createdAt,value
2023-05-21T00:00:11.984Z,68.22
2023-05-21T00:02:44.265Z,68.18
2023-05-21T00:05:15.040Z,68.11
2023-05-21T00:07:44.020Z,68.02
2023-05-21T00:10:12.143Z,67.97
2023-05-21T00:12:41.168Z,67.95
2023-05-21T00:15:10.192Z,67.86
2023-05-21T00:17:39.482Z,67.82
2023-05-21T00:20:08.584Z,67.74
2023-05-21T00:22:36.970Z,67.77
2023-05-21T00:25:05.529Z,67.78
2023-05-21T00:27:33.211Z,67.86
2023-05-21T00:30:01.540Z,67.93
2023-05-21T00:32:30.423Z,67.95
2023-05-21T00:34:58.340Z,67.87
2023-05-21T00:37:26.294Z,67.82
2023-05-21T00:39:55.713Z,67.90
2023-05-21T00:42:25.770Z,67.91
2023-05-21T00:44:54.002Z,68.06
2023-05-21T00:47:22.271Z,68.04
2023-05-21T00:49:52.568Z,68.07
2023-05-21T00:52:21.089Z,68.12
2023-05-21T00:54:51.964Z,68.26
2023-05-21T00:57:23.523Z,68.24
2023-05-21T00:59:53.926Z,68.33
2023-05-21T01:02:23.756Z,68.45
2023-05-21T01:04:55.860Z,68.55
2023-05-21T01:07:24.152Z,68.61
2023-05-21T01:09:53.766Z,68.67
2023-05-21T01:12:24.934Z,68.64
2023-05-21T01:14:54.711Z,68.72
2023-05-21T01:17:23.973Z,68.69
2023-05-21T01:19:54.178Z,68.78
2023-05-21T01:22:24.596Z,68.63
2023-05-21T01:24:55.100Z,68.72
2023-05-21T01:27:23.037Z,68.85
2023-05-21T01:29:51.488Z,68.75
2023-05-21T01:32:36.837Z,68.89
2023-05-21T01:35:11.138Z,69.14
2023-05-21T01:38:05.326Z,69.33
2023-05-21T01:40:47.814Z,69.33
2023-05-21T01:43:16.519Z,69.41
2023-05-21T01:45:46.544Z,69.35
2023-05-21T01:48:16.877Z,69.28
2023-05-21T01:50:45.933Z,69.31
2023-05-21T01:53:15.346Z,69.27
2023-05-21T01:55:43.416Z,69.25
2023-05-21T01:58:11.355Z,69.19
2023-05-21T02:00:39.883Z,69.09
2023-05-21T02:03:08.398Z,69.14
2023-05-21T02:05:36.752Z,69.04
2023-05-21T02:08:07.098Z,69.00
2023-05-21T02:10:36.085Z,68.97
2023-05-21T02:13:04.184Z,68.95
2023-05-21T02:15:33.973Z,68.90
2023-05-21T02:18:02.096Z,68.81
2023-05-21T02:20:40.510Z,68.71
2023-05-21T02:23:08.455Z,68.62
2023-05-21T02:25:38.025Z,68.57
2023-05-21T02:28:09.157Z,68.59
2023-05-21T02:30:40.729Z,68.54
2023-05-21T02:33:09.494Z,68.58
2023-05-21T02:35:38.295Z,68.55
2023-05-21T02:38:08.119Z,68.58
2023-05-21T02:40:36.553Z,68.60
2023-05-21T02:43:04.454Z,68.61
2023-05-21T02:45:32.680Z,68.65
2023-05-21T02:48:02.141Z,68.69
2023-05-21T02:50:31.115Z,68.87
2023-05-21T02:52:59.797Z,68.86
2023-05-21T02:55:28.625Z,68.98
2023-05-21T02:57:58.253Z,69.09
2023-05-21T03:00:26.743Z,69.08
2023-05-21T03:02:55.286Z,69.16
2023-05-21T03:05:23.957Z,69.29
2023-05-21T03:07:52.782Z,69.05
2023-05-21T03:10:21.271Z,68.82
2023-05-21T03:12:49.184Z,68.48
2023-05-21T03:15:18.212Z,68.41
2023-05-21T03:17:46.150Z,68.79
2023-05-21T03:20:15.804Z,68.38
2023-05-21T03:22:45.274Z,67.66
2023-05-21T03:25:14.709Z,66.63
2023-05-21T03:27:43.100Z,66.69
2023-05-21T03:30:13.851Z,65.86
2023-05-21T03:32:45.563Z,65.40
2023-05-21T03:35:14.985Z,64.08
2023-05-21T03:37:43.217Z,62.91
2023-05-21T03:40:12.915Z,61.40
2023-05-21T03:42:41.140Z,59.01
2023-05-21T03:45:10.204Z,58.30
2023-05-21T03:47:54.713Z,56.08
2023-05-21T03:50:23.026Z,54.41
2023-05-21T03:52:51.459Z,52.35
2023-05-21T03:55:19.211Z,51.27
2023-05-21T03:57:51.420Z,50.26
2023-05-21T04:00:19.713Z,48.69
2023-05-21T04:02:52.625Z,47.04
2023-05-21T04:05:22.629Z,45.36
2023-05-21T04:07:52.131Z,44.49
2023-05-21T04:10:20.054Z,44.56
2023-05-21T04:12:49.946Z,42.86
2023-05-21T04:15:19.184Z,41.83
2023-05-21T04:17:47.297Z,40.87
2023-05-21T04:20:16.672Z,40.60
2023-05-21T04:22:46.846Z,39.94
2023-05-21T04:25:15.032Z,39.62
2023-05-21T04:27:43.205Z,39.60
2023-05-21T04:30:11.340Z,38.33
2023-05-21T04:32:40.198Z,38.31
2023-05-21T04:35:09.753Z,37.75
2023-05-21T04:37:39.986Z,36.53
2023-05-21T04:40:10.094Z,36.22
2023-05-21T04:42:38.706Z,35.19
2023-05-21T04:45:08.359Z,34.69
2023-05-21T04:47:38.275Z,35.13
2023-05-21T04:50:07.830Z,34.18
2023-05-21T04:52:38.275Z,34.04
2023-05-21T04:55:08.547Z,34.08
2023-05-21T04:57:37.036Z,33.84
2023-05-21T05:00:08.297Z,35.38
2023-05-21T05:02:39.744Z,36.49
2023-05-21T05:05:09.008Z,38.04
2023-05-21T05:07:37.528Z,38.78
2023-05-21T05:10:08.725Z,39.42
2023-05-21T05:12:36.914Z,40.32
2023-05-21T05:15:07.211Z,41.41
2023-05-21T05:17:35.342Z,42.15
2023-05-21T05:20:04.607Z,43.03
2023-05-21T05:22:35.365Z,44.00
2023-05-21T05:25:06.427Z,44.58
2023-05-21T05:27:36.993Z,45.34
2023-05-21T05:30:05.483Z,46.18
2023-05-21T05:32:38.476Z,44.99
2023-05-21T05:35:13.423Z,44.92
2023-05-21T05:37:41.947Z,44.35
2023-05-21T05:40:12.916Z,43.16
2023-05-21T05:42:40.838Z,42.10
2023-05-21T05:45:11.730Z,41.15
2023-05-21T05:47:41.278Z,40.58
2023-05-21T05:50:09.684Z,40.97
2023-05-21T05:52:37.759Z,40.22
2023-05-21T05:55:08.380Z,40.15
2023-05-21T05:57:36.290Z,39.49
2023-05-21T06:00:09.368Z,38.70
2023-05-21T06:02:39.199Z,38.07
2023-05-21T06:05:09.427Z,37.13
2023-05-21T06:10:34.636Z,34.99
2023-05-21T06:13:04.783Z,34.50
2023-05-21T06:15:33.706Z,33.54
2023-05-21T06:18:01.855Z,33.62
2023-05-21T06:20:36.763Z,34.00
2023-05-21T06:23:05.993Z,34.05
2023-05-21T06:25:34.426Z,34.90
2023-05-21T06:28:04.066Z,35.29
2023-05-21T06:30:32.311Z,35.24
2023-05-21T06:33:11.170Z,34.94
2023-05-21T06:35:49.575Z,34.64
2023-05-21T06:38:35.972Z,33.53
2023-05-21T06:41:03.884Z,33.95
2023-05-21T06:43:36.354Z,33.74
2023-05-21T06:46:24.223Z,32.73
2023-05-21T06:49:03.534Z,32.22
2023-05-21T06:51:31.422Z,32.27
2023-05-21T06:54:03.825Z,32.97
2023-05-21T06:56:31.654Z,32.86
2023-05-21T06:58:59.715Z,32.08
2023-05-21T07:01:28.480Z,31.53
2023-05-21T07:03:56.218Z,31.90
2023-05-21T07:06:27.305Z,32.01
2023-05-21T07:08:55.068Z,32.46
2023-05-21T07:11:24.787Z,32.75
2023-05-21T07:13:52.448Z,32.69
2023-05-21T07:16:20.501Z,32.50
2023-05-21T07:18:48.814Z,31.58
2023-05-21T07:21:16.693Z,30.73
2023-05-21T07:23:44.971Z,31.83
2023-05-21T07:26:13.060Z,31.59
2023-05-21T07:28:42.766Z,30.60
2023-05-21T07:31:12.699Z,31.60
2023-05-21T07:33:42.211Z,32.18
2023-05-21T07:36:11.133Z,31.46
2023-05-21T07:38:39.983Z,31.98
2023-05-21T07:41:11.454Z,32.26
2023-05-21T07:43:39.762Z,32.98
2023-05-21T07:46:07.732Z,33.77
2023-05-21T07:48:35.903Z,34.13
2023-05-21T07:51:04.599Z,34.31
2023-05-21T07:53:32.905Z,34.65
2023-05-21T07:56:02.171Z,35.30
2023-05-21T07:58:30.601Z,34.51
2023-05-21T08:00:58.324Z,34.43
2023-05-21T08:03:28.875Z,33.74
2023-05-21T08:05:58.077Z,33.18
2023-05-21T08:08:26.135Z,33.04
2023-05-21T08:10:54.897Z,33.15
2023-05-21T08:13:23.383Z,32.75
2023-05-21T08:15:53.413Z,32.87
2023-05-21T08:18:23.271Z,33.27
2023-05-21T08:20:51.368Z,32.25
2023-05-21T08:23:19.746Z,31.50
2023-05-21T08:25:49.804Z,32.25
2023-05-21T08:28:18.248Z,31.76
2023-05-21T08:33:58.807Z,32.24
2023-05-21T08:36:32.517Z,32.35
2023-05-21T08:39:14.404Z,32.16
2023-05-21T08:41:46.616Z,32.06
2023-05-21T08:58:07.325Z,29.54
2023-05-21T09:08:15.160Z,26.74
2023-05-21T09:11:12.988Z,27.62
2023-05-21T09:14:06.118Z,27.71
2023-05-21T09:23:36.910Z,27.58
2023-05-21T09:32:46.910Z,27.79
2023-05-21T09:38:34.621Z,27.98
2023-05-21T09:41:21.514Z,27.87
2023-05-21T09:47:13.644Z,28.44
2023-05-21T09:49:48.782Z,28.31
2023-05-21T09:52:27.266Z,28.24
2023-05-21T09:55:03.835Z,28.77
2023-05-21T09:57:55.492Z,29.47
2023-05-21T10:07:06.166Z,29.99
2023-05-21T10:10:32.118Z,29.56
2023-05-21T10:20:22.263Z,29.10
2023-05-21T10:23:02.768Z,29.39
2023-05-21T10:25:45.831Z,28.58
2023-05-21T10:28:36.840Z,28.39
2023-05-21T10:31:57.592Z,28.65
2023-05-21T10:34:43.819Z,28.05
2023-05-21T10:41:23.033Z,28.02
2023-05-21T10:44:32.694Z,28.16
2023-05-21T10:54:17.213Z,27.09
2023-05-21T11:00:24.835Z,27.33
2023-05-21T11:03:07.309Z,27.60
2023-05-21T11:09:41.067Z,26.81
2023-05-21T11:12:09.308Z,26.50
2023-05-21T11:14:44.141Z,26.41
2023-05-21T11:24:23.598Z,27.09
2023-05-21T11:30:29.454Z,26.03
2023-05-21T11:41:12.555Z,26.74
2023-05-21T13:23:56.927Z,27.28
2023-05-21T13:46:46.227Z,27.23
2023-05-21T14:13:15.446Z,25.52
2023-05-21T14:15:36.583Z,25.40
2023-05-21T14:18:34.681Z,26.16
2023-05-21T14:25:15.359Z,25.27
2023-05-21T14:28:13.054Z,25.59
2023-05-21T14:31:05.757Z,25.95
2023-05-21T14:59:46.402Z,27.93
2023-05-21T15:05:53.795Z,28.56
2023-05-21T15:09:06.993Z,28.66
2023-05-21T15:11:42.174Z,28.17
2023-05-21T15:11:43.831Z,28.31
2023-05-21T15:14:26.225Z,28.11
2023-05-21T15:20:19.647Z,28.52
2023-05-21T15:23:16.834Z,28.85
2023-05-21T15:26:08.535Z,29.23
2023-05-21T15:28:43.864Z,28.79
2023-05-21T15:31:37.913Z,28.74
2023-05-21T15:34:36.435Z,29.15
2023-05-21T15:37:08.139Z,29.13
2023-05-21T15:39:47.769Z,29.19
2023-05-21T15:42:17.065Z,29.39
2023-05-21T15:44:51.158Z,29.61
2023-05-21T15:47:19.826Z,29.95
2023-05-21T15:49:56.305Z,29.94
2023-05-21T15:52:25.388Z,29.68
2023-05-21T15:54:56.569Z,29.78
2023-05-21T15:57:27.556Z,29.98
2023-05-21T15:59:55.680Z,30.07
2023-05-21T16:02:24.033Z,30.40
2023-05-21T16:04:52.269Z,30.48
2023-05-21T16:07:20.769Z,30.40
2023-05-21T16:09:49.051Z,30.41
2023-05-21T16:12:17.391Z,30.52
2023-05-21T16:14:50.997Z,30.74
2023-05-21T16:17:20.255Z,31.05
2023-05-21T16:19:56.905Z,31.02
2023-05-21T16:22:29.833Z,30.91
2023-05-21T16:25:00.148Z,31.02
2023-05-21T16:27:38.248Z,31.60
2023-05-21T16:30:07.482Z,31.75
2023-05-21T16:32:40.086Z,31.73
2023-05-21T16:35:16.260Z,32.17
2023-05-21T16:37:44.493Z,32.43
2023-05-21T16:40:15.947Z,32.80
2023-05-21T16:42:47.128Z,32.97
2023-05-21T16:45:17.213Z,33.07
2023-05-21T16:47:52.169Z,32.96
2023-05-21T16:50:20.668Z,33.09
2023-05-21T16:53:03.464Z,33.09
2023-05-21T16:55:52.798Z,33.28
2023-05-21T16:58:49.414Z,33.40
2023-05-21T17:01:34.091Z,33.53
2023-05-21T17:05:05.318Z,33.69
2023-05-21T17:08:14.707Z,33.87
2023-05-21T17:10:55.414Z,33.98
2023-05-21T17:13:44.959Z,34.22
2023-05-21T17:16:12.886Z,34.40
2023-05-21T17:18:42.878Z,34.74
2023-05-21T17:21:10.958Z,35.02
2023-05-21T17:23:38.924Z,35.09
2023-05-21T17:26:09.129Z,35.33
2023-05-21T17:28:37.201Z,35.42
2023-05-21T17:31:08.617Z,35.45
2023-05-21T17:33:37.703Z,35.69
2023-05-21T17:36:06.084Z,35.87
2023-05-21T17:38:34.556Z,36.03
2023-05-21T17:41:05.640Z,36.06
2023-05-21T17:43:33.558Z,36.29
2023-05-21T17:46:01.564Z,36.32
2023-05-21T17:48:31.138Z,36.36
2023-05-21T17:51:01.170Z,36.44
2023-05-21T17:53:30.433Z,36.42
2023-05-21T17:55:58.652Z,36.48
2023-05-21T17:58:26.736Z,36.41
2023-05-21T18:00:55.799Z,36.68
2023-05-21T18:03:24.330Z,36.57
2023-05-21T18:05:52.978Z,36.60
2023-05-21T18:08:21.604Z,36.71
2023-05-21T18:10:49.559Z,37.02
2023-05-21T18:13:17.933Z,36.95
2023-05-21T18:15:45.918Z,37.10
2023-05-21T18:18:16.952Z,37.35
2023-05-21T18:20:45.603Z,37.41
2023-05-21T18:23:13.626Z,37.54
2023-05-21T18:25:41.662Z,37.67
2023-05-21T18:28:10.048Z,37.93
2023-05-21T18:30:37.973Z,38.16
2023-05-21T18:33:07.835Z,38.46
2023-05-21T18:35:35.761Z,38.52
2023-05-21T18:38:05.553Z,38.78
2023-05-21T18:40:33.459Z,38.95
2023-05-21T18:43:03.153Z,39.07
2023-05-21T18:45:31.141Z,39.16
2023-05-21T18:47:59.958Z,39.37
2023-05-21T18:50:27.812Z,39.58
2023-05-21T18:52:58.524Z,39.94
2023-05-21T18:55:31.280Z,40.22
2023-05-21T18:58:02.259Z,40.33
2023-05-21T19:00:30.088Z,40.68
2023-05-21T19:02:59.252Z,40.53
2023-05-21T19:05:27.782Z,40.79
2023-05-21T19:07:57.969Z,40.80
2023-05-21T19:10:25.714Z,40.78
2023-05-21T19:12:54.057Z,40.79
2023-05-21T19:15:22.386Z,40.94
2023-05-21T19:17:51.431Z,40.99
2023-05-21T19:20:24.480Z,40.85
2023-05-21T19:22:53.462Z,40.79
2023-05-21T19:25:21.582Z,40.74
2023-05-21T19:27:49.498Z,40.68
2023-05-21T19:30:17.879Z,40.59
2023-05-21T19:32:46.585Z,40.50
2023-05-21T19:35:16.192Z,40.52
2023-05-21T19:37:44.128Z,40.55
2023-05-21T19:40:16.175Z,40.80
2023-05-21T19:42:44.854Z,40.78
2023-05-21T19:45:15.244Z,40.86
2023-05-21T19:47:44.743Z,40.97
2023-05-21T19:50:12.946Z,40.84
2023-05-21T19:52:43.058Z,40.70
2023-05-21T19:55:13.659Z,40.71
2023-05-21T19:57:42.034Z,40.72
2023-05-21T20:00:11.544Z,40.73
2023-05-21T20:02:44.073Z,40.44
2023-05-21T20:05:12.219Z,40.26
2023-05-21T20:07:40.933Z,40.18
2023-05-21T20:10:10.604Z,40.29
2023-05-21T20:12:38.961Z,40.42
2023-05-21T20:15:08.262Z,40.42
2023-05-21T20:17:38.249Z,40.54
2023-05-21T20:20:09.215Z,40.53
2023-05-21T20:22:37.562Z,41.11
2023-05-21T20:25:08.274Z,40.87
2023-05-21T20:27:38.256Z,40.88
2023-05-21T20:30:08.088Z,40.90
2023-05-21T20:32:36.332Z,40.95
2023-05-21T20:35:04.858Z,40.99
2023-05-21T20:37:33.393Z,41.04
2023-05-21T20:40:01.719Z,41.06
2023-05-21T20:42:31.486Z,41.10
2023-05-21T20:44:59.479Z,41.17
2023-05-21T20:47:29.375Z,41.19
2023-05-21T20:49:59.605Z,41.33
2023-05-21T20:52:27.654Z,41.49
2023-05-21T20:54:57.378Z,41.46
2023-05-21T20:57:28.233Z,41.47
2023-05-21T20:59:56.498Z,41.46
2023-05-21T21:02:28.105Z,41.49
2023-05-21T21:04:57.332Z,41.46
2023-05-21T21:07:25.563Z,41.60
2023-05-21T21:09:53.676Z,42.40
2023-05-21T21:12:26.636Z,42.70
2023-05-21T21:14:51.410Z,43.08
2023-05-21T21:17:19.476Z,43.15
2023-05-21T21:19:49.008Z,43.43
2023-05-21T21:22:17.796Z,43.65
2023-05-21T21:24:45.985Z,43.89
2023-05-21T21:27:15.776Z,43.97
2023-05-21T21:29:44.533Z,44.20
2023-05-21T21:32:12.719Z,44.45
2023-05-21T21:34:40.742Z,44.68
2023-05-21T21:37:08.549Z,45.00
2023-05-21T21:39:38.252Z,45.04
2023-05-21T21:42:06.859Z,45.10
2023-05-21T21:44:34.763Z,45.10
2023-05-21T21:47:02.730Z,45.20
2023-05-21T21:49:31.134Z,45.20
2023-05-21T21:51:59.258Z,45.24
2023-05-21T21:54:27.340Z,45.40
2023-05-21T21:56:55.620Z,45.23
2023-05-21T21:59:23.840Z,45.10
2023-05-21T22:01:55.655Z,45.05
2023-05-21T22:04:23.766Z,45.06
2023-05-21T22:06:53.397Z,45.21
2023-05-21T22:09:24.304Z,45.26
2023-05-21T22:11:53.051Z,45.28
2023-05-21T22:14:21.115Z,45.20
2023-05-21T22:16:49.083Z,45.34
2023-05-21T22:19:19.027Z,45.50
2023-05-21T22:21:47.551Z,45.82
2023-05-21T22:24:30.959Z,45.73
2023-05-21T22:26:45.706Z,45.67
2023-05-21T22:29:13.609Z,45.84
2023-05-21T22:31:41.612Z,46.03
2023-05-21T22:34:09.497Z,46.24
2023-05-21T22:36:38.240Z,46.34
2023-05-21T22:39:06.037Z,46.41
2023-05-21T22:41:33.993Z,46.52
2023-05-21T22:44:01.904Z,46.75
2023-05-21T22:46:29.969Z,46.81
2023-05-21T22:48:57.807Z,46.89
2023-05-21T22:51:27.467Z,47.03
2023-05-21T22:53:55.688Z,47.11
2023-05-21T22:56:23.423Z,47.05
2023-05-21T22:58:51.512Z,47.09
2023-05-21T23:01:19.347Z,47.18
2023-05-21T23:03:47.230Z,47.28
2023-05-21T23:06:15.124Z,47.52
2023-05-21T23:08:42.895Z,47.44
2023-05-21T23:11:10.894Z,47.66
2023-05-21T23:13:38.741Z,47.74
2023-05-21T23:16:07.127Z,47.86
2023-05-21T23:18:35.270Z,47.95
2023-05-21T23:21:03.483Z,48.07
2023-05-21T23:23:31.600Z,48.23
2023-05-21T23:25:59.880Z,48.38
2023-05-21T23:28:27.787Z,48.43
2023-05-21T23:30:55.734Z,48.53
2023-05-21T23:33:23.605Z,48.65
2023-05-21T23:35:51.503Z,48.66
2023-05-21T23:38:19.362Z,48.78
2023-05-21T23:40:46.966Z,48.95
2023-05-21T23:43:14.613Z,48.99
2023-05-21T23:45:42.361Z,49.11
2023-05-21T23:48:10.071Z,49.19
2023-05-21T23:50:38.326Z,49.30
2023-05-21T23:53:06.399Z,49.32
2023-05-21T23:55:33.851Z,49.54
2023-05-21T23:58:03.414Z,49.60
